Time;durP1;ratioP1;P1;durP2;ratioP2;P2;SDS_P1;SDS_P2;PMS_P1;PMS_P2;Temp;Humidity;BMP_temperature;BMP_pressure;BME280_temperature;BME280_humidity;BME280_pressure;Samples;Min_cycle;Max_cycle;Signal;HPM_P1;HPM_P2
2023/12/24 00:00:55;;;;;;;0.52;0.00;;;8.80;99.90;;;;;;5057021;28;20487;-64
2023/12/24 00:03:20;;;;;;;0.30;0.00;;;8.80;99.90;;;;;;5057250;28;20074;-64
2023/12/24 00:05:46;;;;;;;0.20;0.00;;;8.80;99.90;;;;;;5057217;28;20032;-64
2023/12/24 00:08:12;;;;;;;0.00;0.00;;;8.80;99.90;;;;;;5057362;28;20047;-64
2023/12/24 00:10:37;;;;;;;0.00;0.00;;;8.80;99.90;;;;;;5057152;28;20099;-64
2023/12/24 00:13:03;;;;;;;0.00;0.00;;;8.80;99.90;;;;;;5055543;28;20495;-64
2023/12/24 00:15:28;;;;;;;2.85;0.10;;;8.90;99.90;;;;;;5057186;28;20040;-64
2023/12/24 00:17:54;;;;;;;0.40;0.00;;;8.90;99.90;;;;;;5055716;28;20028;-63
2023/12/24 00:20:20;;;;;;;0.00;0.00;;;8.90;99.90;;;;;;5056814;28;20056;-69
2023/12/24 00:23:06;;;;;;;0.60;0.13;;;8.90;99.90;;;;;;5056507;28;20103;-64
2023/12/24 00:25:32;;;;;;;0.10;0.08;;;8.90;99.90;;;;;;5056980;28;20041;-65
2023/12/24 00:28:00;;;;;;;1.65;0.10;;;8.90;99.90;;;;;;5057429;28;20025;-65
2023/12/24 00:30:27;;;;;;;0.38;0.05;;;8.90;99.90;;;;;;5056114;28;20157;-65
2023/12/24 00:32:59;;;;;;;0.20;0.00;;;9.00;99.90;;;;;;5056755;28;20461;-65
2023/12/24 00:35:26;;;;;;;5.15;0.85;;;9.00;99.90;;;;;;5056763;28;20036;-65
2023/12/24 00:37:52;;;;;;;0.35;0.00;;;9.00;99.90;;;;;;5057002;28;20029;-64
2023/12/24 00:40:18;;;;;;;0.00;0.00;;;9.00;99.90;;;;;;5056900;28;20357;-64
2023/12/24 00:42:45;;;;;;;0.38;0.17;;;9.00;99.90;;;;;;5056471;28;20036;-65
2023/12/24 00:45:12;;;;;;;0.00;0.00;;;9.10;99.90;;;;;;5056002;28;20033;-70
2023/12/24 00:47:38;;;;;;;0.05;0.00;;;9.00;99.90;;;;;;5058131;28;20040;-66
2023/12/24 00:50:06;;;;;;;0.10;0.00;;;9.00;99.90;;;;;;5056683;28;20021;-65
2023/12/24 00:52:32;;;;;;;0.63;0.00;;;9.10;99.90;;;;;;5056703;28;20053;-65
2023/12/24 00:54:57;;;;;;;0.00;0.00;;;9.00;99.90;;;;;;5056299;28;20614;-64
2023/12/24 00:57:23;;;;;;;0.45;0.00;;;9.00;99.90;;;;;;5056547;28;20032;-65
2023/12/24 00:59:49;;;;;;;0.10;0.00;;;8.90;99.90;;;;;;5055928;28;20025;-65
2023/12/24 01:02:14;;;;;;;1.58;0.00;;;8.90;99.90;;;;;;5054938;28;20052;-65
2023/12/24 01:04:40;;;;;;;0.08;0.00;;;8.90;99.90;;;;;;5056135;28;20025;-65
2023/12/24 01:07:06;;;;;;;0.30;0.10;;;8.80;99.90;;;;;;5054867;28;20034;-65
2023/12/24 01:09:31;;;;;;;1.50;0.10;;;8.80;99.90;;;;;;5056276;28;20037;-65
2023/12/24 01:11:57;;;;;;;0.85;0.00;;;8.80;99.90;;;;;;5054674;28;20064;-65
2023/12/24 01:14:23;;;;;;;1.83;0.10;;;8.80;99.90;;;;;;5055803;28;20100;-65
2023/12/24 01:16:48;;;;;;;1.17;0.10;;;8.80;99.90;;;;;;5055897;28;20033;-65
2023/12/24 01:19:14;;;;;;;0.77;0.00;;;8.80;99.90;;;;;;5055888;28;20036;-65
2023/12/24 01:21:40;;;;;;;0.28;0.08;;;8.80;99.90;;;;;;5054510;28;20120;-65
2023/12/24 01:24:06;;;;;;;1.25;0.10;;;8.80;99.90;;;;;;5055709;28;20021;-65
2023/12/24 01:26:36;;;;;;;1.27;0.10;;;8.90;99.90;;;;;;5055410;28;20392;-65
2023/12/24 01:29:02;;;;;;;0.10;0.00;;;8.90;99.90;;;;;;5055730;28;20021;-65
2023/12/24 01:31:28;;;;;;;0.00;0.00;;;8.80;99.90;;;;;;5055382;28;20033;-64
2023/12/24 01:33:54;;;;;;;0.10;0.00;;;8.70;99.90;;;;;;5054035;28;20048;-65
2023/12/24 01:36:20;;;;;;;0.73;0.00;;;8.90;99.90;;;;;;5055485;28;20119;-65
2023/12/24 01:38:46;;;;;;;2.90;0.10;;;8.90;99.90;;;;;;5055535;28;20033;-64
2023/12/24 01:41:12;;;;;;;0.00;0.00;;;8.90;99.90;;;;;;5055437;28;20021;-65
2023/12/24 01:43:41;;;;;;;0.40;0.15;;;8.90;99.90;;;;;;5055126;28;20358;-65
2023/12/24 01:46:13;;;;;;;0.17;0.05;;;9.00;99.90;;;;;;5055500;28;20111;-65
2023/12/24 01:48:39;;;;;;;1.17;0.00;;;8.90;99.90;;;;;;5054252;28;20422;-65
2023/12/24 01:51:05;;;;;;;0.10;0.00;;;8.90;99.90;;;;;;5055216;28;20116;-65
2023/12/24 01:53:32;;;;;;;0.22;0.03;;;8.90;99.90;;;;;;5055472;28;20119;-65
2023/12/24 01:56:00;;;;;;;0.10;0.05;;;8.90;99.90;;;;;;5053881;28;20079;-65
2023/12/24 01:58:26;;;;;;;0.10;0.00;;;9.00;99.90;;;;;;5055434;28;20104;-65
2023/12/24 02:00:52;;;;;;;0.10;0.10;;;9.10;99.90;;;;;;5053735;28;20083;-65
2023/12/24 02:03:19;;;;;;;1.20;0.00;;;9.10;99.90;;;;;;5054674;28;20586;-65
2023/12/24 02:05:47;;;;;;;0.25;0.10;;;9.10;99.90;;;;;;5054931;28;20025;-65
2023/12/24 02:08:18;;;;;;;0.03;0.00;;;9.10;99.90;;;;;;5054232;28;20411;-65
2023/12/24 02:10:44;;;;;;;0.05;0.00;;;9.10;99.90;;;;;;5053953;28;20376;-65
2023/12/24 02:13:12;;;;;;;0.03;0.00;;;9.10;99.90;;;;;;5054858;28;20029;-65
2023/12/24 02:15:38;;;;;;;0.30;0.00;;;9.10;99.90;;;;;;5054429;28;20033;-65
2023/12/24 02:18:06;;;;;;;1.10;0.00;;;9.10;99.90;;;;;;5054786;28;20033;-65
2023/12/24 02:20:31;;;;;;;0.38;0.00;;;9.10;99.90;;;;;;5054451;28;20025;-65
2023/12/24 02:22:57;;;;;;;1.15;0.20;;;9.00;99.90;;;;;;5055118;28;20117;-65
2023/12/24 02:25:23;;;;;;;0.75;0.00;;;9.10;99.90;;;;;;5053310;28;20083;-65
2023/12/24 02:28:14;;;;;;;0.35;0.00;;;9.10;99.90;;;;;;5054305;28;20074;-65
2023/12/24 02:30:43;;;;;;;0.25;0.10;;;9.20;99.90;;;;;;5055042;28;20047;-66
2023/12/24 02:33:12;;;;;;;0.20;0.00;;;9.30;99.90;;;;;;5054612;28;20439;-64
2023/12/24 02:35:39;;;;;;;0.10;0.00;;;9.30;99.90;;;;;;5053402;28;20095;-65
2023/12/24 02:38:05;;;;;;;0.03;0.03;;;9.40;99.90;;;;;;5055262;28;20036;-65
2023/12/24 02:40:30;;;;;;;0.20;0.10;;;9.50;99.90;;;;;;5054272;28;20051;-65
2023/12/24 02:42:56;;;;;;;0.10;0.10;;;9.40;99.90;;;;;;5053195;28;20512;-65
2023/12/24 02:45:22;;;;;;;0.43;0.20;;;9.50;99.90;;;;;;5054663;28;20104;-64
2023/12/24 02:47:47;;;;;;;0.80;0.13;;;9.50;99.90;;;;;;5053909;28;20461;-65
2023/12/24 02:50:16;;;;;;;0.00;0.00;;;9.50;99.90;;;;;;5056521;28;20036;-66
2023/12/24 02:52:42;;;;;;;2.28;0.10;;;9.40;99.90;;;;;;5055799;28;20091;-66
2023/12/24 02:55:07;;;;;;;0.00;0.00;;;9.50;99.90;;;;;;5055460;28;20123;-66
2023/12/24 02:57:33;;;;;;;0.05;0.00;;;9.40;99.90;;;;;;5054912;28;20486;-66
2023/12/24 02:59:58;;;;;;;0.35;0.00;;;9.40;99.90;;;;;;5055336;28;20036;-65
2023/12/24 03:02:24;;;;;;;1.55;0.08;;;9.30;99.90;;;;;;5053961;28;20115;-65
2023/12/24 03:04:50;;;;;;;0.43;0.08;;;9.30;99.90;;;;;;5054214;28;20040;-64
2023/12/24 03:07:15;;;;;;;0.10;0.08;;;9.30;99.90;;;;;;5054061;28;20115;-65
2023/12/24 03:09:41;;;;;;;0.88;0.10;;;9.30;99.90;;;;;;5052686;28;20029;-64
2023/12/24 03:12:07;;;;;;;0.00;0.00;;;9.30;99.90;;;;;;5054003;28;20029;-64
2023/12/24 03:14:32;;;;;;;0.52;0.00;;;9.30;99.90;;;;;;5053349;28;20123;-64
2023/12/24 03:16:58;;;;;;;0.00;0.00;;;9.40;99.90;;;;;;5052490;28;20029;-64
2023/12/24 03:19:24;;;;;;;0.08;0.00;;;9.30;99.90;;;;;;5053642;28;20040;-64
2023/12/24 03:21:49;;;;;;;1.45;0.00;;;9.30;99.90;;;;;;5053434;28;20033;-64
2023/12/24 03:24:15;;;;;;;1.85;0.05;;;9.30;99.90;;;;;;5052589;28;20021;-65
2023/12/24 03:26:40;;;;;;;0.40;0.00;;;9.30;99.90;;;;;;5053689;28;20061;-64
2023/12/24 03:29:07;;;;;;;0.08;0.00;;;9.30;99.90;;;;;;5052395;28;20028;-64
2023/12/24 03:31:33;;;;;;;0.00;0.00;;;9.20;99.90;;;;;;5052049;28;20040;-64
2023/12/24 03:33:58;;;;;;;1.00;0.00;;;9.20;99.90;;;;;;5053622;28;20025;-65
2023/12/24 03:36:24;;;;;;;0.28;0.00;;;9.20;99.90;;;;;;5052818;28;20033;-64
2023/12/24 03:38:49;;;;;;;0.00;0.00;;;9.20;99.90;;;;;;5053609;28;20037;-65
2023/12/24 03:41:15;;;;;;;1.52;0.00;;;9.20;99.90;;;;;;5053396;28;20036;-64
2023/12/24 03:43:41;;;;;;;0.10;0.10;;;9.20;99.90;;;;;;5053590;28;20032;-64
2023/12/24 03:46:06;;;;;;;0.00;0.00;;;9.10;99.90;;;;;;5052379;28;20460;-64
2023/12/24 03:48:33;;;;;;;1.27;0.00;;;9.20;99.90;;;;;;5052265;28;20132;-64
2023/12/24 03:50:59;;;;;;;0.35;0.35;;;9.10;99.90;;;;;;5053635;28;20350;-64
2023/12/24 03:53:24;;;;;;;0.75;0.00;;;9.20;99.90;;;;;;5052154;28;20049;-64
2023/12/24 03:55:50;;;;;;;0.20;0.10;;;9.20;99.90;;;;;;5053117;28;20039;-64
2023/12/24 03:58:16;;;;;;;0.10;0.00;;;9.20;99.90;;;;;;5053123;28;20032;-64
2023/12/24 04:00:41;;;;;;;0.00;0.00;;;9.10;99.90;;;;;;5053471;28;20434;-65
2023/12/24 04:03:07;;;;;;;0.00;0.00;;;9.10;99.90;;;;;;5053383;28;20104;-65
2023/12/24 04:05:33;;;;;;;0.17;0.00;;;9.00;99.90;;;;;;5054248;28;20065;-65
2023/12/24 04:07:58;;;;;;;0.15;0.10;;;9.10;99.90;;;;;;5054533;28;20164;-65
2023/12/24 04:10:24;;;;;;;0.50;0.10;;;9.10;99.90;;;;;;5054662;28;20021;-64
2023/12/24 04:12:50;;;;;;;0.00;0.00;;;9.00;99.90;;;;;;5052423;28;20119;-64
2023/12/24 04:15:15;;;;;;;0.00;0.00;;;9.10;99.90;;;;;;5052196;28;20025;-64
2023/12/24 04:17:41;;;;;;;0.22;0.10;;;9.10;99.90;;;;;;5053260;28;20029;-64
2023/12/24 04:20:07;;;;;;;0.30;0.00;;;9.00;99.90;;;;;;5052455;28;20071;-65
2023/12/24 04:22:33;;;;;;;2.17;0.03;;;9.10;99.90;;;;;;5053187;28;20074;-64
2023/12/24 04:24:59;;;;;;;2.08;0.00;;;9.10;99.90;;;;;;5053292;28;20037;-64
2023/12/24 04:27:25;;;;;;;1.00;0.00;;;9.10;99.90;;;;;;5056824;28;20029;-64
2023/12/24 04:29:51;;;;;;;0.15;0.13;;;9.10;99.90;;;;;;5057080;28;20461;-64
2023/12/24 04:32:19;;;;;;;0.43;0.03;;;9.20;99.90;;;;;;5055468;28;20063;-64
2023/12/24 04:34:45;;;;;;;0.55;0.00;;;9.20;99.90;;;;;;5056687;28;20029;-64
2023/12/24 04:37:11;;;;;;;0.30;0.00;;;9.20;99.90;;;;;;5055062;28;20032;-65
2023/12/24 04:39:36;;;;;;;0.47;0.10;;;9.20;99.90;;;;;;5055307;28;20052;-64
2023/12/24 04:42:02;;;;;;;3.65;0.13;;;9.10;99.90;;;;;;5055287;28;20032;-64
2023/12/24 04:44:28;;;;;;;0.30;0.20;;;9.10;99.90;;;;;;5056573;28;20052;-64
2023/12/24 04:46:53;;;;;;;0.00;0.00;;;9.10;99.90;;;;;;5056495;28;20443;-64
2023/12/24 04:49:19;;;;;;;0.00;0.00;;;9.10;99.90;;;;;;5056394;28;20423;-65
2023/12/24 04:51:45;;;;;;;0.10;0.10;;;9.10;99.90;;;;;;5054836;28;20052;-65
2023/12/24 04:54:11;;;;;;;0.00;0.00;;;9.10;99.90;;;;;;5056624;28;20366;-66
2023/12/24 04:56:36;;;;;;;0.55;0.00;;;9.10;99.90;;;;;;5055956;28;20037;-64
2023/12/24 04:59:02;;;;;;;0.13;0.00;;;9.10;99.90;;;;;;5056233;28;20040;-65
2023/12/24 05:01:28;;;;;;;0.38;0.00;;;9.10;99.90;;;;;;5056175;28;20053;-65
2023/12/24 05:03:53;;;;;;;0.00;0.00;;;9.00;99.90;;;;;;5054914;28;20047;-65
2023/12/24 05:06:19;;;;;;;0.05;0.00;;;9.00;99.90;;;;;;5056275;28;20095;-64
2023/12/24 05:08:45;;;;;;;0.35;0.00;;;9.00;99.90;;;;;;5054809;28;20028;-64
2023/12/24 05:11:11;;;;;;;1.08;0.00;;;9.00;99.90;;;;;;5056037;28;20025;-64
2023/12/24 05:13:37;;;;;;;0.00;0.00;;;9.00;99.90;;;;;;5056277;28;20075;-64
2023/12/24 05:16:03;;;;;;;0.10;0.00;;;9.00;99.90;;;;;;5054587;28;20025;-65
2023/12/24 05:18:30;;;;;;;0.10;0.00;;;8.90;99.90;;;;;;5056174;28;20400;-64
2023/12/24 05:20:56;;;;;;;0.32;0.10;;;8.90;99.90;;;;;;5054528;28;20473;-64
2023/12/24 05:23:21;;;;;;;3.42;0.00;;;8.90;99.90;;;;;;5055910;28;20047;-64
2023/12/24 05:25:47;;;;;;;0.10;0.00;;;8.90;99.90;;;;;;5054425;28;20025;-65
2023/12/24 05:28:16;;;;;;;1.27;0.00;;;8.90;99.90;;;;;;5055714;28;20064;-64
2023/12/24 05:30:41;;;;;;;0.57;0.10;;;8.80;99.90;;;;;;5055750;28;20365;-64
2023/12/24 05:33:07;;;;;;;0.75;0.20;;;8.80;99.90;;;;;;5054552;28;20025;-64
2023/12/24 05:35:33;;;;;;;0.00;0.00;;;8.80;99.90;;;;;;5054232;28;20036;-64
2023/12/24 05:37:58;;;;;;;1.55;0.00;;;8.80;99.90;;;;;;5054947;28;20147;-64
2023/12/24 05:40:24;;;;;;;0.00;0.00;;;8.70;99.90;;;;;;5055655;28;20151;-64
2023/12/24 05:42:50;;;;;;;0.00;0.00;;;8.70;99.90;;;;;;5055413;28;20025;-64
2023/12/24 05:45:15;;;;;;;0.00;0.00;;;8.70;99.90;;;;;;5054111;28;20362;-64
2023/12/24 05:47:41;;;;;;;1.48;0.10;;;8.70;99.90;;;;;;5055580;28;20036;-64
2023/12/24 05:50:08;;;;;;;0.00;0.00;;;8.60;99.90;;;;;;5054001;28;20025;-64
2023/12/24 05:52:33;;;;;;;0.47;0.00;;;8.60;99.90;;;;;;5053057;28;20084;-65
2023/12/24 05:55:00;;;;;;;0.57;0.10;;;8.60;99.90;;;;;;5055378;28;20123;-64
2023/12/24 05:57:26;;;;;;;0.10;0.10;;;8.60;99.90;;;;;;5060381;28;20041;-64
2023/12/24 05:59:52;;;;;;;0.30;0.00;;;8.50;99.90;;;;;;5065059;28;20044;-64
2023/12/24 06:02:18;;;;;;;0.32;0.00;;;8.50;99.90;;;;;;5061039;28;20021;-64
2023/12/24 06:04:44;;;;;;;0.38;0.10;;;8.50;99.90;;;;;;5055797;28;20029;-65
2023/12/24 06:07:09;;;;;;;0.38;0.05;;;8.50;99.90;;;;;;5073701;28;20078;-64
2023/12/24 06:09:35;;;;;;;1.67;0.00;;;8.50;99.90;;;;;;5074879;28;20032;-64
2023/12/24 06:12:01;;;;;;;1.38;0.20;;;8.50;99.90;;;;;;5038182;28;20096;-64
2023/12/24 06:14:27;;;;;;;0.38;0.00;;;8.50;99.90;;;;;;5033537;28;20129;-64
2023/12/24 06:16:52;;;;;;;0.10;0.00;;;8.60;99.90;;;;;;5036025;28;20052;-65
2023/12/24 06:19:18;;;;;;;1.90;0.00;;;8.60;99.90;;;;;;5073431;28;20032;-64
2023/12/24 06:21:44;;;;;;;0.75;0.00;;;8.60;99.90;;;;;;5055368;28;20033;-64
2023/12/24 06:24:09;;;;;;;0.10;0.00;;;8.60;99.90;;;;;;5054388;28;20488;-65
2023/12/24 06:26:35;;;;;;;0.88;0.00;;;8.60;99.90;;;;;;5068102;28;20024;-64
2023/12/24 06:29:00;;;;;;;0.35;0.00;;;8.60;99.90;;;;;;5053646;28;20029;-64
2023/12/24 06:31:26;;;;;;;0.20;0.00;;;8.60;99.90;;;;;;5064651;28;20071;-64
2023/12/24 06:33:52;;;;;;;1.40;0.10;;;8.70;99.90;;;;;;5052085;28;20033;-60
2023/12/24 06:36:18;;;;;;;1.10;0.00;;;9.40;99.90;;;;;;5054003;28;20174;-63
2023/12/24 06:38:44;;;;;;;0.00;0.00;;;9.60;99.90;;;;;;5053079;28;20083;-63
2023/12/24 06:41:09;;;;;;;0.00;0.00;;;9.20;99.90;;;;;;5054085;28;20033;-63
2023/12/24 06:43:37;;;;;;;0.10;0.00;;;9.00;99.90;;;;;;5053330;28;20025;-63
2023/12/24 06:46:04;;;;;;;0.10;0.00;;;8.90;99.90;;;;;;5053223;28;20369;-64
2023/12/24 06:48:29;;;;;;;0.03;0.00;;;8.90;99.90;;;;;;5052422;28;20029;-64
2023/12/24 06:50:55;;;;;;;1.38;0.00;;;8.90;99.90;;;;;;5053955;28;20036;-63
2023/12/24 06:53:20;;;;;;;0.10;0.10;;;8.90;99.90;;;;;;5051969;28;20053;-63
2023/12/24 06:55:46;;;;;;;0.00;0.00;;;8.90;99.90;;;;;;5052472;28;20029;-63
2023/12/24 06:58:11;;;;;;;0.20;0.00;;;8.90;99.90;;;;;;5052913;28;20060;-64
2023/12/24 07:00:37;;;;;;;1.02;0.10;;;8.90;99.90;;;;;;5053872;28;20104;-63
2023/12/24 07:03:03;;;;;;;0.03;0.00;;;8.90;99.90;;;;;;5053717;28;20025;-64
2023/12/24 07:05:38;;;;;;;0.77;0.00;;;9.00;99.90;;;;;;5054198;28;20037;-63
2023/12/24 07:08:04;;;;;;;0.10;0.00;;;8.90;99.90;;;;;;5054121;28;20029;-63
2023/12/24 07:10:30;;;;;;;0.10;0.10;;;9.00;99.90;;;;;;5053875;28;20346;-63
2023/12/24 07:12:56;;;;;;;1.08;0.00;;;9.00;99.90;;;;;;5052623;28;20031;-64
2023/12/24 07:15:22;;;;;;;0.00;0.00;;;9.00;99.90;;;;;;5052487;28;20025;-63
2023/12/24 07:17:47;;;;;;;0.32;0.10;;;9.00;99.90;;;;;;5052754;28;20029;-64
2023/12/24 07:20:14;;;;;;;0.85;0.00;;;9.10;99.90;;;;;;5053764;28;20130;-64
2023/12/24 07:22:40;;;;;;;0.00;0.00;;;9.10;99.90;;;;;;5053700;28;20031;-64
2023/12/24 07:25:06;;;;;;;0.22;0.00;;;9.10;99.90;;;;;;5053724;28;20029;-63
2023/12/24 07:27:32;;;;;;;0.20;0.05;;;9.20;99.90;;;;;;5054062;28;20183;-63
2023/12/24 07:29:57;;;;;;;0.30;0.10;;;9.20;99.90;;;;;;5054950;28;20063;-64
2023/12/24 07:32:23;;;;;;;0.30;0.13;;;9.20;99.90;;;;;;5053758;28;20025;-68
2023/12/24 07:34:49;;;;;;;0.40;0.08;;;9.20;99.90;;;;;;5053698;28;20033;-64
2023/12/24 07:37:16;;;;;;;0.10;0.05;;;9.30;99.90;;;;;;5053013;28;20033;-64
2023/12/24 07:39:42;;;;;;;0.93;0.10;;;9.30;99.90;;;;;;5053848;28;20017;-64
2023/12/24 07:42:07;;;;;;;1.08;0.10;;;9.30;99.90;;;;;;5052280;28;20025;-64
2023/12/24 07:44:33;;;;;;;0.20;0.10;;;9.30;99.90;;;;;;5053634;28;20021;-64
2023/12/24 07:46:59;;;;;;;0.43;0.00;;;9.30;99.90;;;;;;5052375;28;20124;-64
2023/12/24 07:49:26;;;;;;;0.63;0.10;;;9.30;99.90;;;;;;5052230;28;20031;-63
2023/12/24 07:51:52;;;;;;;1.42;0.10;;;9.40;99.90;;;;;;5053411;28;20051;-64
2023/12/24 07:54:17;;;;;;;0.50;0.05;;;9.40;99.90;;;;;;5052247;28;20021;-63
2023/12/24 07:56:43;;;;;;;0.73;0.73;;;9.40;99.90;;;;;;5053340;28;20033;-64
2023/12/24 07:59:09;;;;;;;0.20;0.10;;;9.40;99.90;;;;;;5053492;28;20384;-64
2023/12/24 08:01:37;;;;;;;0.68;0.30;;;9.40;99.90;;;;;;5055982;28;20032;-64
2023/12/24 08:04:03;;;;;;;0.10;0.10;;;9.40;99.90;;;;;;5056038;28;20067;-63
2023/12/24 08:06:29;;;;;;;0.13;0.10;;;9.40;99.90;;;;;;5056964;28;20484;-63
2023/12/24 08:08:55;;;;;;;1.02;0.10;;;9.50;99.90;;;;;;5057213;28;20036;-63
2023/12/24 08:11:21;;;;;;;0.85;0.10;;;9.50;99.90;;;;;;5057165;28;20025;-63
2023/12/24 08:13:47;;;;;;;0.43;0.10;;;9.50;99.90;;;;;;5056856;28;20362;-63
2023/12/24 08:16:12;;;;;;;0.43;0.10;;;9.50;99.90;;;;;;5056687;28;20029;-63
2023/12/24 08:18:38;;;;;;;0.45;0.20;;;9.60;99.90;;;;;;5055858;28;20029;-64
2023/12/24 08:21:06;;;;;;;0.70;0.20;;;9.70;99.90;;;;;;5057064;28;20021;-64
2023/12/24 08:23:32;;;;;;;0.08;0.00;;;9.60;99.90;;;;;;5056881;28;20055;-64
2023/12/24 08:25:58;;;;;;;3.70;0.10;;;9.60;99.90;;;;;;5056766;28;20032;-63
2023/12/24 08:28:23;;;;;;;0.80;0.13;;;9.60;99.90;;;;;;5056841;28;20025;-64
2023/12/24 08:30:49;;;;;;;0.63;0.10;;;9.70;99.90;;;;;;5056789;28;20032;-66
2023/12/24 08:33:14;;;;;;;0.05;0.05;;;9.70;99.90;;;;;;5055660;28;20488;-64
2023/12/24 08:35:40;;;;;;;1.45;0.10;;;9.60;99.90;;;;;;5056947;28;20033;-64
2023/12/24 08:38:06;;;;;;;0.00;0.00;;;9.70;99.90;;;;;;5056992;28;20029;-64
2023/12/24 08:40:31;;;;;;;1.45;0.10;;;9.70;99.90;;;;;;5055415;28;20025;-72
2023/12/24 08:42:57;;;;;;;0.38;0.08;;;9.80;99.90;;;;;;5056295;28;20029;-67
2023/12/24 08:45:23;;;;;;;0.00;0.00;;;9.80;99.90;;;;;;5055405;28;20040;-63
2023/12/24 08:47:48;;;;;;;1.48;0.20;;;9.80;99.90;;;;;;5056467;28;20053;-63
2023/12/24 08:50:14;;;;;;;0.60;0.15;;;9.80;99.90;;;;;;5056395;28;20492;-63
2023/12/24 08:52:40;;;;;;;3.10;0.10;;;9.80;99.90;;;;;;5056254;28;20045;-63
2023/12/24 08:55:08;;;;;;;0.30;0.10;;;9.70;99.90;;;;;;5055004;28;20123;-63
2023/12/24 08:57:34;;;;;;;0.10;0.00;;;9.70;99.90;;;;;;5056830;28;20036;-63
2023/12/24 09:00:00;;;;;;;0.10;0.10;;;9.80;99.90;;;;;;5056224;28;20431;-64
2023/12/24 09:02:25;;;;;;;0.30;0.10;;;9.70;99.90;;;;;;5055002;28;20024;-63
2023/12/24 09:04:51;;;;;;;0.10;0.10;;;9.80;99.90;;;;;;5056301;28;20025;-65
2023/12/24 09:07:17;;;;;;;0.00;0.00;;;9.80;99.90;;;;;;5056150;28;20033;-66
2023/12/24 09:09:43;;;;;;;0.88;0.10;;;10.20;99.90;;;;;;5056029;28;20021;-65
2023/12/24 09:12:09;;;;;;;0.20;0.03;;;10.50;99.90;;;;;;5055123;28;20078;-61
2023/12/24 09:14:34;;;;;;;0.43;0.00;;;10.70;99.90;;;;;;5055693;28;20489;-62
2023/12/24 09:17:00;;;;;;;0.63;0.10;;;10.40;99.90;;;;;;5055687;28;20492;-62
2023/12/24 09:19:26;;;;;;;1.00;0.10;;;10.30;99.90;;;;;;5055656;28;20056;-62
2023/12/24 09:21:51;;;;;;;0.10;0.08;;;10.10;99.90;;;;;;5056421;28;20033;-62
2023/12/24 09:24:17;;;;;;;0.38;0.10;;;10.10;99.90;;;;;;5055593;28;20024;-63
2023/12/24 09:26:43;;;;;;;0.10;0.10;;;10.00;99.90;;;;;;5055738;28;20060;-62
2023/12/24 09:29:11;;;;;;;0.32;0.10;;;10.00;99.90;;;;;;5055719;28;20025;-62
2023/12/24 09:31:39;;;;;;;5.22;1.10;;;10.00;99.90;;;;;;5054316;28;20516;-63
2023/12/24 09:34:06;;;;;;;0.75;0.20;;;10.00;99.90;;;;;;5056079;28;20365;-67
2023/12/24 09:36:31;;;;;;;1.65;0.20;;;9.90;99.90;;;;;;5054778;28;20425;-62
2023/12/24 09:38:57;;;;;;;0.35;0.10;;;9.90;99.90;;;;;;5055649;28;20068;-62
2023/12/24 09:41:23;;;;;;;0.68;0.00;;;9.90;99.90;;;;;;5055483;28;20020;-62
2023/12/24 09:43:49;;;;;;;0.30;0.03;;;9.90;99.90;;;;;;5055441;28;20507;-65
2023/12/24 09:46:15;;;;;;;0.15;0.00;;;9.90;99.90;;;;;;5054132;28;20040;-62
2023/12/24 09:48:40;;;;;;;0.00;0.00;;;10.00;99.90;;;;;;5055349;28;20389;-62
2023/12/24 09:51:08;;;;;;;0.10;0.10;;;10.00;99.90;;;;;;5053784;28;20023;-62
2023/12/24 09:53:33;;;;;;;0.17;0.00;;;10.00;99.90;;;;;;5055430;28;20041;-62
2023/12/24 09:55:59;;;;;;;1.08;0.00;;;10.00;99.90;;;;;;5054831;28;20055;-62
2023/12/24 09:58:25;;;;;;;0.20;0.08;;;10.00;99.90;;;;;;5055144;28;20029;-62
2023/12/24 10:00:50;;;;;;;0.00;0.00;;;10.10;99.90;;;;;;5054809;28;20025;-63
2023/12/24 10:03:16;;;;;;;0.25;0.22;;;10.10;99.90;;;;;;5055125;28;20036;-63
2023/12/24 10:06:04;;;;;;;2.28;0.10;;;10.10;99.90;;;;;;5053849;28;20033;-63
2023/12/24 10:08:34;;;;;;;1.10;0.10;;;10.20;99.90;;;;;;5053866;28;20025;-63
2023/12/24 10:11:13;;;;;;;1.00;0.10;;;10.30;99.90;;;;;;5054603;28;20033;-63
2023/12/24 10:13:39;;;;;;;0.10;0.10;;;10.40;99.90;;;;;;5056068;28;20024;-62
2023/12/24 10:16:05;;;;;;;0.30;0.10;;;10.40;99.90;;;;;;5053546;28;20542;-62
2023/12/24 10:18:32;;;;;;;1.33;0.10;;;10.30;99.90;;;;;;5054548;28;20032;-66
2023/12/24 10:21:09;;;;;;;0.10;0.05;;;10.40;99.90;;;;;;5053444;28;20381;-63
2023/12/24 10:23:35;;;;;;;0.82;0.10;;;10.50;99.90;;;;;;5054470;28;20048;-62
2023/12/24 10:26:07;;;;;;;0.50;0.20;;;10.50;99.90;;;;;;5053445;28;20385;-63
2023/12/24 10:28:33;;;;;;;0.10;0.10;;;10.50;99.90;;;;;;5054648;28;20037;-63
2023/12/24 10:31:09;;;;;;;0.03;0.03;;;10.50;99.90;;;;;;5053998;28;20021;-63
2023/12/24 10:33:38;;;;;;;0.28;0.10;;;10.50;99.90;;;;;;5054425;28;20027;-63
2023/12/24 10:36:04;;;;;;;1.27;0.15;;;10.50;99.90;;;;;;5054364;28;20037;-63
2023/12/24 10:38:31;;;;;;;0.10;0.00;;;10.50;99.90;;;;;;5053842;28;20116;-63
2023/12/24 10:40:56;;;;;;;0.10;0.10;;;10.50;99.90;;;;;;5052778;28;20028;-63
2023/12/24 10:43:22;;;;;;;0.10;0.00;;;10.40;99.90;;;;;;5054725;28;20029;-63
2023/12/24 10:45:48;;;;;;;1.27;0.10;;;10.40;99.90;;;;;;5055829;28;20033;-65
2023/12/24 10:48:14;;;;;;;0.00;0.00;;;10.70;99.90;;;;;;5054775;28;20031;-63
2023/12/24 10:50:40;;;;;;;1.58;0.10;;;11.20;99.90;;;;;;5054173;28;20109;-63
2023/12/24 10:53:05;;;;;;;1.15;0.10;;;11.30;99.90;;;;;;5053772;28;20048;-68
2023/12/24 10:55:33;;;;;;;1.15;0.13;;;11.50;99.90;;;;;;5053763;28;20036;-62
2023/12/24 10:58:20;;;;;;;1.05;0.70;;;11.40;99.90;;;;;;5054109;28;20029;-72
2023/12/24 11:00:46;;;;;;;8.02;0.30;;;11.60;99.90;;;;;;5054065;28;20108;-69
2023/12/24 11:03:31;;;;;;;0.60;0.20;;;11.60;99.90;;;;;;5054074;28;20438;-69
2023/12/24 11:05:58;;;;;;;0.30;0.17;;;11.70;99.90;;;;;;5053771;28;20108;-65
2023/12/24 11:08:24;;;;;;;0.20;0.05;;;12.10;99.90;;;;;;5053993;28;20022;-70
2023/12/24 11:11:10;;;;;;;0.22;0.08;;;12.20;99.90;;;;;;5052685;28;20354;-67
2023/12/24 11:13:37;;;;;;;0.80;0.00;;;12.20;99.50;;;;;;5054202;28;20095;-62
2023/12/24 11:16:06;;;;;;;0.17;0.10;;;11.80;99.10;;;;;;5053799;28;20025;-63
2023/12/24 11:18:48;;;;;;;1.90;0.10;;;11.20;99.90;;;;;;5053825;28;20029;-63
2023/12/24 11:21:17;;;;;;;0.45;0.20;;;11.00;99.90;;;;;;5053779;28;20061;-62
2023/12/24 11:24:08;;;;;;;0.20;0.10;;;10.70;99.90;;;;;;5053085;28;20423;-63
2023/12/24 11:26:34;;;;;;;1.48;0.10;;;10.70;99.90;;;;;;5052328;28;20029;-63
2023/12/24 11:29:02;;;;;;;0.08;0.08;;;10.60;99.90;;;;;;5053458;28;20491;-63
2023/12/24 11:31:28;;;;;;;0.10;0.10;;;10.60;99.90;;;;;;5053722;28;20025;-63
2023/12/24 11:33:55;;;;;;;0.35;0.35;;;10.50;99.90;;;;;;5053638;28;20155;-63
2023/12/24 11:36:22;;;;;;;0.38;0.10;;;10.50;99.90;;;;;;5055994;28;20033;-63
2023/12/24 11:38:56;;;;;;;3.17;0.30;;;10.50;99.90;;;;;;5057816;28;20025;-63
2023/12/24 11:41:23;;;;;;;0.10;0.05;;;10.50;99.90;;;;;;5058207;28;20036;-63
2023/12/24 11:43:58;;;;;;;0.70;0.00;;;10.40;99.90;;;;;;5058103;28;20029;-62
2023/12/24 11:46:28;;;;;;;1.48;0.40;;;10.30;99.90;;;;;;5057885;28;20067;-67
2023/12/24 11:48:55;;;;;;;0.20;0.13;;;10.30;99.90;;;;;;5056549;28;20025;-63
2023/12/24 11:51:26;;;;;;;0.35;0.10;;;10.30;99.90;;;;;;5056529;28;20384;-63
2023/12/24 11:54:03;;;;;;;0.10;0.00;;;10.20;99.90;;;;;;5057578;28;20025;-62
2023/12/24 11:56:30;;;;;;;0.68;0.00;;;10.10;99.90;;;;;;5056608;28;20029;-62
2023/12/24 11:59:00;;;;;;;1.02;0.10;;;10.00;99.90;;;;;;5056193;28;20040;-63
2023/12/24 12:01:38;;;;;;;0.98;0.10;;;10.00;99.90;;;;;;5057477;28;20028;-63
2023/12/24 12:04:05;;;;;;;0.00;0.00;;;10.00;99.90;;;;;;5057415;28;20033;-63
2023/12/24 12:06:32;;;;;;;0.10;0.05;;;9.90;99.90;;;;;;5057249;28;20488;-63
2023/12/24 12:09:00;;;;;;;0.10;0.00;;;9.90;99.90;;;;;;5057496;28;20453;-63
2023/12/24 12:11:26;;;;;;;0.40;0.10;;;9.80;99.90;;;;;;5055921;28;20021;-62
2023/12/24 12:13:52;;;;;;;0.00;0.00;;;9.70;99.90;;;;;;5056909;28;20461;-62
2023/12/24 12:16:17;;;;;;;0.22;0.08;;;9.60;99.90;;;;;;5055663;28;20029;-63
2023/12/24 12:18:43;;;;;;;0.00;0.00;;;9.60;99.90;;;;;;5057065;28;20036;-62
2023/12/24 12:21:10;;;;;;;0.00;0.00;;;9.60;99.90;;;;;;5055860;28;20087;-69
2023/12/24 12:23:38;;;;;;;0.50;0.10;;;9.70;99.90;;;;;;5055740;28;20032;-63
2023/12/24 12:26:04;;;;;;;1.15;0.08;;;9.60;99.90;;;;;;5056877;28;20029;-63
2023/12/24 12:28:29;;;;;;;0.10;0.00;;;9.60;99.90;;;;;;5056545;28;20053;-63
2023/12/24 12:30:55;;;;;;;0.43;0.00;;;9.60;99.90;;;;;;5056599;28;20088;-63
2023/12/24 12:33:41;;;;;;;0.10;0.10;;;9.60;99.90;;;;;;5056357;28;20021;-66
2023/12/24 12:36:07;;;;;;;0.20;0.10;;;9.60;99.90;;;;;;5054609;28;20028;-63
2023/12/24 12:38:33;;;;;;;0.00;0.00;;;9.60;99.90;;;;;;5056347;28;20033;-63
2023/12/24 12:40:58;;;;;;;1.33;0.00;;;9.60;99.90;;;;;;5056949;28;20029;-63
2023/12/24 12:43:24;;;;;;;0.32;0.17;;;9.60;99.90;;;;;;5056722;28;20036;-63
2023/12/24 12:45:50;;;;;;;0.00;0.00;;;9.60;99.90;;;;;;5056597;28;20112;-63
2023/12/24 12:48:16;;;;;;;0.30;0.10;;;;;;;;;;5056499;28;20051;-63
2023/12/24 12:50:41;;;;;;;0.00;0.00;;;9.80;99.90;;;;;;5055115;28;20021;-63
2023/12/24 12:53:07;;;;;;;0.00;0.00;;;9.80;99.90;;;;;;5056281;28;20396;-63